This is the latest recevied weather packets stored in our database for station/object W5CRT. If no packets are shown the sender has not sent any weather packets the latest 10 day(s).
| Time | Temp. | Humidity | Pressure | Rain* | Wind** | Luminosity | Snow |
|---|---|---|---|---|---|---|---|
| 1777914999 | 24.44° C | 49% | 1010.4 hPa | 0 mm | - | 718 W/m² | - |
| 1777914697 | 23.89° C | 50% | 1010.4 hPa | 0 mm | - | 834 W/m² | - |
| 1777914393 | 23.89° C | 49% | 1010.5 hPa | 0 mm | - | 898 W/m² | - |
| 1777914091 | 23.89° C | 50% | 1010.7 hPa | 0 mm | - | 782 W/m² | - |
| 1777913786 | 23.89° C | 51% | 1010.8 hPa | 0 mm | - | 831 W/m² | - |
| 1777913483 | 23.33° C | 51% | 1011 hPa | 0 mm | - | 789 W/m² | - |
| 1777913180 | 23.33° C | 51% | 1011 hPa | 0 mm | - | 790 W/m² | - |
| 1777912875 | 23.33° C | 52% | 1010.9 hPa | 0 mm | - | 682 W/m² | - |
| 1777912573 | 23.33° C | 53% | 1010.7 hPa | 0 mm | - | 705 W/m² | - |
| 1777912269 | 23.33° C | 50% | 1011.1 hPa | 0 mm | - | 684 W/m² | - |
| 1777911965 | 22.78° C | 53% | 1011.1 hPa | 0 mm | - | 814 W/m² | - |
| 1777911661 | 23.33° C | 51% | 1010.8 hPa | 0 mm | - | 650 W/m² | - |
| 1777911357 | 23.33° C | 52% | 1010.8 hPa | 0 mm | - | 663 W/m² | - |
| 1777911055 | 23.33° C | 54% | 1011 hPa | 0 mm | - | 804 W/m² | - |
| 1777910753 | 22.78° C | 56% | 1011.1 hPa | 0 mm | - | 788 W/m² | - |
| 1777910449 | 22.78° C | 54% | 1011 hPa | 0 mm | - | 741 W/m² | - |
| 1777910145 | 22.78° C | 56% | 1010.9 hPa | 0 mm | - | 771 W/m² | - |
| 1777909843 | 22.22° C | 55% | 1011.1 hPa | 0 mm | - | 680 W/m² | - |
| 1777909539 | 22.22° C | 55% | 1011.1 hPa | 0 mm | - | 755 W/m² | - |
| 1777909237 | 22.22° C | 54% | 1011.4 hPa | 0 mm | - | 694 W/m² | - |
| 1777908935 | 22.22° C | 57% | 1011.2 hPa | 0 mm | - | 735 W/m² | - |
| 1777908633 | 22.22° C | 57% | 1011.5 hPa | 0 mm | - | 713 W/m² | - |
| 1777908329 | 22.22° C | 58% | 1011.3 hPa | 0 mm | - | 733 W/m² | - |
| 1777908026 | 21.67° C | 59% | 1011.4 hPa | 0 mm | - | 714 W/m² | - |
| 1777907721 | 21.67° C | 60% | 1011.3 hPa | 0 mm | - | 678 W/m² | - |
* Rain latest hour (hover to see other rain measurements)
** Current wind speed in m/s (hover to see current wind gust speed)